Holly Ridge, NC (28445)

5:04 PM EST on January 24, 2017 (GMT -0500)
Turtle Cove, Surf City, NC | | Change Station

Elev 30 ft 34.42 °N, 77.55 °W | Updated 55 seconds ago

Clear
Clear
60.7 °F
Feels Like 60.7 °F
N
7.0
Wind Variable Wind from WNW
Gusts 11.0 mph

Today
High -- | Low -- °F
--% Chance of Precip.
Yesterday
High -- | Low -- °F
Precip. -- in
Pressure 29.65 in
Visibility 10.0 miles
Clouds Clear
Dew Point 48 °F
Humidity 62%
Rainfall 0.00 in
Snow Depth Not available.
7:12 AM 5:32 PM
Waning Crescent, 9% visible
METAR KNCA 242156Z 29009KT 10SM CLR 16/06 A2964 RMK AO2 SLP040 T01560056
Pressure 29.65 in
Visibility 10.0 miles
Clouds Clear
Dew Point 48 °F
Humidity 62%
Rainfall 0.00 in
Snow Depth Not available.
7:12 AM 5:32 PM
Waning Crescent, 9% visible
METAR KNCA 242156Z 29009KT 10SM CLR 16/06 A2964 RMK AO2 SLP040 T01560056

Get Your Daily Forecast Email!

Thanks for signing up!

Be on the lookout for a verification email in your inbox.

You'll start receiving the daily forecast at 8 AM.

×

10-Day Weather Forecast

Almanac

Astronomy

Jan. 24, 2017 Rise Set
Actual Time
Civil Twilight
Nautical Twilight
Astronomical Twilight
Moon
Length of Visible Light
Length of Day
Tomorrow will be .
, % of the Moon is Illuminated

Today's Extremes

State Highs State Lows

Community

WunderPhotos

Upload Photos

1,962,540 photos uploaded!

WunderBlog® & News

Nearby

Air Quality

  Air Quality AQ Index Pollutant
Not available.

Snow Depth

Station Depth Elevation

Earthquake Activity

City Distance Mag. Time & Date
Minimum magnitude displayed is 2.5.

Coastal Water Temperatures

Place Temperature

Stations

Nearby Weather Stations

Station Location Temp. Windchill Dew Point Humidity Wind Precip. Elev Updated Type
                   

Watches & Warnings

Small Craft Advisory, Gale Watch
Issued: 3:16 PM EST Jan. 24, 2017 – National Weather Service

... Small Craft Advisory remains in effect until 1 am EST
Wednesday...
... Gale watch remains in effect from Thursday morning through
Thursday evening...

* winds... west 15 to 25 kt tonight. Southwest 25 to 35 kt
Thursday.

* Seas... 7 to 10 feet.

Precautionary/preparedness actions...

A Small Craft Advisory means that wind speeds of 25 to 33 knots
and/or seas of 6 feet or greater are expected to produce
hazardous wave conditions to small craft. Inexperienced
mariners... especially those operating smaller vessels should
avoid navigating in these conditions.

A gale watch is issued when the risk of gale force winds of 34 to
47 knots has significantly increased... but the specific timing
and/or location is still uncertain. It is intended to provide
additional lead time for mariners who may wish to consider
altering their plans.